Time;durP1;ratioP1;P1;durP2;ratioP2;P2;SDS_P1;SDS_P2;PMS_P1;PMS_P2;Temp;Humidity;BMP_temperature;BMP_pressure;BME280_temperature;BME280_humidity;BME280_pressure;Samples;Min_cycle;Max_cycle;Signal;HPM_P1;HPM_P2
2022/04/17 00:01:30;;;;;;;7.35;5.15;;;;;;;3.92;nan;103466.47;5063729;28;20024;-60
2022/04/17 00:03:56;;;;;;;7.00;4.97;;;;;;;3.88;nan;103462.41;5062100;28;20663;-59
2022/04/17 00:06:21;;;;;;;9.27;5.60;;;;;;;3.85;nan;103464.50;5061602;28;20093;-59
2022/04/17 00:08:47;;;;;;;8.35;5.38;;;;;;;3.82;nan;103457.69;5059646;28;20028;-59
2022/04/17 00:11:12;;;;;;;7.95;5.30;;;;;;;3.80;nan;103459.63;5059377;28;20063;-60
2022/04/17 00:13:38;;;;;;;6.38;4.28;;;;;;;3.78;nan;103458.09;5065904;28;20028;-60
2022/04/17 00:16:04;;;;;;;7.95;4.60;;;;;;;3.73;nan;103452.34;5061831;28;20032;-60
2022/04/17 00:18:30;;;;;;;7.55;4.78;;;;;;;3.72;nan;103450.66;5065924;28;20461;-59
2022/04/17 00:20:55;;;;;;;6.80;4.03;;;;;;;3.65;nan;103450.38;5061920;28;20111;-59
2022/04/17 00:23:21;;;;;;;7.68;4.57;;;;;;;3.62;nan;103443.53;5065432;28;20255;-60
2022/04/17 00:25:47;;;;;;;5.93;4.57;;;;;;;3.61;nan;103443.69;5061702;28;20028;-59
2022/04/17 00:28:13;;;;;;;6.18;4.63;;;;;;;3.58;nan;103443.94;5063704;28;20051;-60
2022/04/17 00:30:39;;;;;;;7.22;4.07;;;;;;;3.54;nan;103438.06;5064387;28;20087;-60
2022/04/17 00:33:04;;;;;;;8.63;4.45;;;;;;;3.53;nan;103435.56;5064310;28;21704;-58
2022/04/17 00:35:30;;;;;;;7.57;4.03;;;;;;;3.51;nan;103437.50;5063481;28;20040;-60
2022/04/17 00:37:55;;;;;;;8.38;4.50;;;;;;;3.48;nan;103438.63;5065553;28;20032;-60
2022/04/17 00:40:21;;;;;;;7.43;4.30;;;;;;;3.45;nan;103441.53;5062037;28;20031;-59
2022/04/17 00:42:47;;;;;;;7.20;4.18;;;;;;;3.43;nan;103434.72;5063818;28;20037;-60
2022/04/17 00:45:14;;;;;;;7.78;4.78;;;;;;;3.40;nan;103421.69;5063497;28;20711;-59
2022/04/17 00:47:40;;;;;;;5.65;3.88;;;;;;;3.37;nan;103424.63;5063777;28;20032;-60
2022/04/17 00:50:07;;;;;;;7.10;4.50;;;;;;;3.33;nan;103430.19;5064111;28;20113;-60
2022/04/17 00:52:33;;;;;;;5.95;3.92;;;;;;;3.30;nan;103424.34;5063975;28;20074;-60
2022/04/17 00:55:01;;;;;;;6.25;4.75;;;;;;;3.27;nan;103419.31;5065099;28;20027;-59
2022/04/17 00:57:27;;;;;;;7.30;4.63;;;;;;;3.23;nan;103418.75;5058983;28;20032;-60
2022/04/17 00:59:53;;;;;;;5.85;3.60;;;;;;;3.21;nan;103419.84;5062352;28;20047;-60
2022/04/17 01:02:19;;;;;;;4.38;3.70;;;;;;;3.20;nan;103423.47;5063560;28;20500;-60
2022/04/17 01:04:45;;;;;;;5.32;3.78;;;;;;;3.18;nan;103431.53;5064379;28;20025;-60
2022/04/17 01:07:11;;;;;;;6.50;3.78;;;;;;;3.15;nan;103421.22;5064913;28;20025;-60
2022/04/17 01:09:36;;;;;;;4.65;3.40;;;;;;;3.13;nan;103423.16;5064454;28;20032;-59
2022/04/17 01:12:08;;;;;;;5.32;3.83;;;;;;;3.11;nan;103419.81;5063809;28;20520;-59
2022/04/17 01:14:38;;;;;;;8.25;4.10;;;;;;;3.10;nan;103422.59;5064825;28;20517;-58
2022/04/17 01:17:04;;;;;;;4.78;3.00;;;;;;;3.08;nan;103419.25;5065250;28;21698;-60
2022/04/17 01:19:37;;;;;;;4.47;3.45;;;;;;;3.05;nan;103415.03;5060871;28;20044;-60
2022/04/17 01:22:05;;;;;;;3.78;2.75;;;;;;;3.04;nan;103413.34;5060504;28;20139;-59
2022/04/17 01:27:32;;;;;;;4.40;3.30;;;;;;;2.98;nan;103420.03;4994768;28;20052;-60
2022/04/17 01:29:58;;;;;;;3.53;2.90;;;;;;;2.94;nan;103417.78;5046320;28;20125;-60
2022/04/17 01:32:23;;;;;;;4.57;3.22;;;;;;;2.92;nan;103417.09;5060668;28;20123;-61
2022/04/17 01:34:49;;;;;;;3.72;2.75;;;;;;;2.88;nan;103410.38;5063039;28;20028;-59
2022/04/17 01:37:15;;;;;;;5.97;3.00;;;;;;;2.85;nan;103415.91;5063881;28;20041;-58
2022/04/17 01:39:41;;;;;;;4.80;2.90;;;;;;;2.83;nan;103409.91;5064170;28;20123;-60
2022/04/17 01:42:07;;;;;;;4.40;3.28;;;;;;;2.81;nan;103411.84;5061862;28;20033;-60
2022/04/17 01:44:33;;;;;;;5.10;3.30;;;;;;;2.79;nan;103413.81;5061713;28;20113;-60
2022/04/17 01:47:01;;;;;;;4.85;3.28;;;;;;;2.76;nan;103408.78;5058959;28;20048;-59
2022/04/17 01:49:26;;;;;;;5.57;3.05;;;;;;;2.73;nan;103400.13;5059899;28;20035;-60
2022/04/17 01:51:53;;;;;;;5.10;3.25;;;;;;;2.70;nan;103403.03;5059540;28;20024;-59
2022/04/17 01:54:20;;;;;;;4.93;3.28;;;;;;;2.69;nan;103400.50;5056464;28;20048;-60
2022/04/17 01:56:49;;;;;;;3.75;2.90;;;;;;;2.66;nan;103401.59;5059483;28;20029;-60
2022/04/17 01:59:16;;;;;;;4.03;3.30;;;;;;;2.62;nan;103391.41;5062932;28;20604;-60
2022/04/17 02:01:42;;;;;;;4.50;3.28;;;;;;;2.55;nan;103404.34;5059409;28;20032;-59
2022/04/17 02:04:09;;;;;;;5.45;4.00;;;;;;;2.53;nan;103398.34;5061238;28;20028;-59
2022/04/17 02:06:36;;;;;;;6.50;3.20;;;;;;;2.54;nan;103400.03;5062628;28;20402;-60
2022/04/17 02:09:02;;;;;;;3.88;3.10;;;;;;;2.53;nan;103397.50;5061762;28;20024;-61
2022/04/17 02:11:28;;;;;;;5.88;3.50;;;;;;;2.49;nan;103404.84;5061326;28;20404;-59
2022/04/17 02:13:54;;;;;;;6.15;3.15;;;;;;;2.46;nan;103397.19;5061810;28;20648;-60
2022/04/17 02:16:21;;;;;;;5.75;3.58;;;;;;;2.43;nan;103387.69;5063256;28;20037;-60
2022/04/17 02:18:47;;;;;;;7.28;3.65;;;;;;;2.44;nan;103393.81;5058295;28;20677;-59
2022/04/17 02:21:13;;;;;;;4.78;3.30;;;;;;;2.44;nan;103388.53;5062013;28;20116;-60
2022/04/17 02:23:43;;;;;;;6.47;3.45;;;;;;;2.41;nan;103386.16;5063130;28;20035;-60
2022/04/17 02:26:10;;;;;;;5.38;3.35;;;;;;;2.40;nan;103382.66;5061275;28;20038;-60
2022/04/17 02:28:38;;;;;;;4.15;3.10;;;;;;;2.38;nan;103371.38;5057078;28;20036;-60
2022/04/17 02:31:05;;;;;;;5.75;3.65;;;;;;;2.35;nan;103362.88;5059795;28;20035;-60
2022/04/17 02:33:30;;;;;;;6.05;3.50;;;;;;;2.30;nan;103357.09;5062511;28;20036;-60
2022/04/17 02:35:56;;;;;;;4.30;3.17;;;;;;;2.21;nan;103353.44;5061075;28;20098;-60
2022/04/17 02:38:22;;;;;;;4.95;3.47;;;;;;;2.22;nan;103362.22;5061609;28;20028;-61
2022/04/17 02:40:48;;;;;;;4.90;3.30;;;;;;;2.22;nan;103356.94;5058763;28;20036;-60
2022/04/17 02:43:13;;;;;;;6.05;3.60;;;;;;;2.23;nan;103353.31;5061122;28;20059;-60
2022/04/17 02:45:39;;;;;;;5.65;3.78;;;;;;;2.20;nan;103351.78;5041323;28;21888;-59
2022/04/17 02:48:04;;;;;;;5.78;3.17;;;;;;;2.17;nan;103353.84;5062917;28;20113;-59
2022/04/17 02:50:31;;;;;;;5.43;3.88;;;;;;;2.14;nan;103354.91;5060961;28;20032;-60
2022/04/17 02:52:56;;;;;;;4.68;3.53;;;;;;;2.13;nan;103347.94;5058807;28;20028;-60
2022/04/17 02:55:22;;;;;;;4.65;3.50;;;;;;;2.10;nan;103348.19;5060634;28;20078;-59
2022/04/17 02:57:48;;;;;;;6.45;3.88;;;;;;;2.09;nan;103350.00;5060291;28;20025;-60
2022/04/17 03:00:14;;;;;;;5.47;3.50;;;;;;;2.07;nan;103349.31;5056245;28;20111;-59
2022/04/17 03:05:38;;;;;;;5.63;3.45;;;;;;;2.05;nan;103345.94;5059746;28;20070;-60
2022/04/17 03:08:08;;;;;;;3.97;2.95;;;;;;;2.02;nan;103343.56;5065206;28;20036;-59
2022/04/17 03:10:38;;;;;;;4.80;3.38;;;;;;;1.98;nan;103342.16;5064482;28;20052;-61
2022/04/17 03:13:04;;;;;;;4.13;3.47;;;;;;;1.98;nan;103338.69;5064149;28;20032;-60
2022/04/17 03:15:31;;;;;;;6.45;3.38;;;;;;;1.96;nan;103340.59;5060597;28;20043;-59
2022/04/17 03:17:58;;;;;;;4.20;3.25;;;;;;;1.94;nan;103343.34;5066149;28;20052;-59
2022/04/17 03:20:27;;;;;;;5.20;2.80;;;;;;;1.90;nan;103347.22;5062681;28;20028;-60
2022/04/17 03:22:53;;;;;;;5.55;3.53;;;;;;;1.86;nan;103345.81;5065217;28;20081;-60
2022/04/17 03:25:19;;;;;;;4.00;3.28;;;;;;;1.84;nan;103342.47;5065214;28;20455;-59
2022/04/17 03:27:46;;;;;;;4.50;3.80;;;;;;;1.82;nan;103333.81;5062858;28;20028;-60
2022/04/17 03:30:21;;;;;;;6.00;3.38;;;;;;;1.80;nan;103335.75;5061636;28;20028;-63
2022/04/17 03:32:49;;;;;;;3.88;2.95;;;;;;;1.78;nan;103337.66;5066489;28;20031;-60
2022/04/17 03:35:17;;;;;;;4.43;3.00;;;;;;;1.78;nan;103327.09;5064295;28;20029;-60
2022/04/17 03:37:43;;;;;;;6.40;3.03;;;;;;;1.76;nan;103323.72;5067220;28;20611;-60
2022/04/17 03:40:11;;;;;;;5.70;3.30;;;;;;;1.74;nan;103325.66;5066038;28;20055;-59
2022/04/17 03:42:37;;;;;;;4.85;3.33;;;;;;;1.71;nan;103329.41;5064678;28;20024;-61
2022/04/17 03:45:06;;;;;;;6.32;3.28;;;;;;;1.71;nan;103325.94;5065786;28;20036;-60
2022/04/17 03:47:32;;;;;;;6.93;3.65;;;;;;;1.68;nan;103328.81;5064962;28;20111;-60
2022/04/17 03:49:59;;;;;;;5.90;4.03;;;;;;;1.66;nan;103325.47;5065470;28;20032;-59
2022/04/17 03:52:25;;;;;;;3.83;3.42;;;;;;;1.65;nan;103329.09;5062836;28;20371;-61
2022/04/17 03:54:50;;;;;;;5.15;3.88;;;;;;;1.63;nan;103333.66;5065157;28;20097;-60
2022/04/17 03:57:16;;;;;;;5.40;3.25;;;;;;;1.61;nan;103328.47;5062817;28;20112;-60
2022/04/17 03:59:41;;;;;;;5.10;3.53;;;;;;;1.60;nan;103328.59;5063244;28;20032;-60
2022/04/17 04:02:07;;;;;;;6.35;3.40;;;;;;;1.57;nan;103331.50;5064585;28;20059;-60
2022/04/17 04:04:33;;;;;;;3.47;2.92;;;;;;;1.56;nan;103332.47;5063853;28;20952;-60
2022/04/17 04:06:59;;;;;;;3.97;3.42;;;;;;;1.53;nan;103323.00;5065033;28;20028;-60
2022/04/17 04:09:24;;;;;;;6.13;3.47;;;;;;;1.52;nan;103327.44;5065163;28;20032;-60
2022/04/17 04:11:50;;;;;;;5.50;3.40;;;;;;;1.51;nan;103327.56;5065350;28;20032;-60
2022/04/17 04:14:15;;;;;;;4.60;3.63;;;;;;;1.48;nan;103318.09;5063406;28;20024;-59
2022/04/17 04:16:41;;;;;;;4.15;3.22;;;;;;;1.48;nan;103323.38;5062720;28;20863;-60
2022/04/17 04:19:06;;;;;;;5.47;3.63;;;;;;;1.46;nan;103320.03;5063542;28;20997;-59
2022/04/17 04:21:32;;;;;;;6.43;4.03;;;;;;;1.45;nan;103320.16;5063896;28;20028;-61
2022/04/17 04:23:58;;;;;;;6.43;3.78;;;;;;;1.44;nan;103316.69;5064963;28;20067;-59
2022/04/17 04:26:23;;;;;;;5.55;3.80;;;;;;;1.43;nan;103322.88;5062390;28;20036;-60
2022/04/17 04:28:49;;;;;;;5.13;3.95;;;;;;;1.43;nan;103322.88;5063849;28;20040;-60
2022/04/17 04:31:15;;;;;;;7.15;3.85;;;;;;;1.44;nan;103324.59;5065352;28;20425;-60
2022/04/17 04:33:42;;;;;;;6.50;3.92;;;;;;;1.44;nan;103329.88;5061829;28;20117;-58
2022/04/17 04:36:12;;;;;;;5.05;3.90;;;;;;;1.44;nan;103327.25;5063977;28;20490;-59
2022/04/17 04:38:39;;;;;;;6.00;4.22;;;;;;;1.44;nan;103318.47;5062561;28;20082;-60
2022/04/17 04:41:05;;;;;;;7.22;4.47;;;;;;;1.42;nan;103331.78;5062676;28;20052;-59
2022/04/17 04:43:31;;;;;;;4.95;4.45;;;;;;;1.43;nan;103329.97;5064313;28;20609;-60
2022/04/17 04:46:06;;;;;;;5.45;4.35;;;;;;;1.43;nan;103322.06;5062038;28;20029;-60
2022/04/17 04:51:29;;;;;;;6.07;4.07;;;;;;;1.41;nan;103324.00;5062485;28;20117;-59
2022/04/17 04:53:56;;;;;;;6.68;4.28;;;;;;;1.42;nan;103313.28;5062700;28;20057;-59
2022/04/17 04:56:23;;;;;;;5.30;4.45;;;;;;;1.46;nan;103321.84;5062844;28;20028;-61
2022/04/17 04:58:48;;;;;;;7.38;4.28;;;;;;;1.48;nan;103318.09;5064766;28;20044;-60
2022/04/17 05:01:14;;;;;;;5.65;4.13;;;;;;;1.49;nan;103311.84;5063876;28;20107;-60
2022/04/17 05:03:40;;;;;;;7.10;4.57;;;;;;;1.55;nan;103314.94;5082541;28;20119;-60
2022/04/17 05:06:07;;;;;;;6.13;4.35;;;;;;;1.61;nan;103314.44;5063697;28;20110;-60
2022/04/17 05:08:34;;;;;;;5.18;4.18;;;;;;;1.66;nan;103314.91;5064517;28;20023;-60
2022/04/17 05:10:59;;;;;;;7.93;4.72;;;;;;;1.71;nan;103320.63;5064706;28;20020;-59
2022/04/17 05:13:25;;;;;;;6.40;5.03;;;;;;;1.77;nan;103317.47;5060442;28;20481;-60
2022/04/17 05:15:50;;;;;;;7.60;5.43;;;;;;;1.84;nan;103318.66;5060921;28;20024;-60
2022/04/17 05:18:16;;;;;;;8.13;5.00;;;;;;;1.90;nan;103328.72;5060211;28;20482;-61
2022/04/17 05:20:41;;;;;;;6.30;5.00;;;;;;;1.94;nan;103316.91;5061744;28;20446;-60
2022/04/17 05:23:28;;;;;;;9.38;5.20;;;;;;;2.02;nan;103318.94;5063704;28;20039;-60
2022/04/17 05:25:58;;;;;;;8.85;5.50;;;;;;;2.10;nan;103316.47;5058706;28;20032;-60
2022/04/17 05:28:24;;;;;;;8.73;6.45;;;;;;;2.17;nan;103317.66;5065669;28;20035;-60
2022/04/17 05:30:50;;;;;;;9.35;5.93;;;;;;;2.24;nan;103317.94;5060537;28;20037;-59
2022/04/17 05:33:21;;;;;;;7.82;5.45;;;;;;;2.30;nan;103317.41;5062715;28;20081;-60
2022/04/17 05:35:50;;;;;;;7.18;5.07;;;;;;;2.37;nan;103314.13;5058308;28;20654;-59
2022/04/17 05:38:17;;;;;;;6.75;5.30;;;;;;;2.43;nan;103313.59;5061704;28;20054;-59
2022/04/17 05:40:45;;;;;;;8.05;5.93;;;;;;;2.49;nan;103311.38;5058875;28;20028;-60
2022/04/17 05:43:11;;;;;;;7.00;5.63;;;;;;;2.54;nan;103312.69;5059785;28;20038;-59
2022/04/17 05:45:37;;;;;;;10.65;6.32;;;;;;;2.59;nan;103307.00;5060612;28;20104;-60
2022/04/17 05:48:04;;;;;;;8.68;6.20;;;;;;;2.64;nan;103310.06;5060724;28;20028;-59
2022/04/17 05:50:30;;;;;;;8.68;6.63;;;;;;;2.69;nan;103302.56;5062072;28;20478;-59
2022/04/17 05:52:56;;;;;;;9.13;6.68;;;;;;;2.70;nan;103299.81;5061694;28;20783;-58
2022/04/17 05:55:22;;;;;;;7.45;6.30;;;;;;;2.74;nan;103308.31;5061096;28;20032;-59
2022/04/17 05:57:47;;;;;;;9.05;6.07;;;;;;;2.75;nan;103302.03;5061743;28;20113;-59
2022/04/17 06:00:16;;;;;;;9.35;5.68;;;;;;;2.79;nan;103299.97;5061475;28;20027;-58
2022/04/17 06:02:44;;;;;;;10.20;6.20;;;;;;;2.83;nan;103304.00;5064043;28;20056;-59
2022/04/17 06:05:11;;;;;;;8.25;5.75;;;;;;;2.89;nan;103303.50;5063076;28;20391;-59
2022/04/17 06:07:36;;;;;;;7.60;5.18;;;;;;;2.93;nan;103300.44;5065796;28;20024;-60
2022/04/17 06:10:03;;;;;;;6.75;5.65;;;;;;;2.98;nan;103294.72;5062775;28;20036;-58
2022/04/17 06:12:28;;;;;;;8.23;5.50;;;;;;;3.04;nan;103296.81;5062231;28;20031;-60
2022/04/17 06:14:54;;;;;;;8.15;5.93;;;;;;;3.11;nan;103305.91;5060140;28;20081;-59
2022/04/17 06:17:20;;;;;;;7.07;5.57;;;;;;;3.19;nan;103292.81;5034725;22;20038;-59
2022/04/17 06:19:45;;;;;;;7.18;5.35;;;;;;;3.29;nan;103291.00;4998434;28;20026;-59
2022/04/17 06:22:11;;;;;;;7.20;4.72;;;;;;;3.39;nan;103282.22;5003968;28;20026;-60
2022/04/17 06:24:36;;;;;;;6.28;5.15;;;;;;;3.49;nan;103280.41;5003492;28;20072;-60
2022/04/17 06:27:02;;;;;;;7.20;4.82;;;;;;;3.61;nan;103276.66;4998539;28;20491;-61
2022/04/17 06:29:28;;;;;;;8.65;5.10;;;;;;;3.74;nan;103271.06;5002142;28;20034;-61
2022/04/17 06:31:53;;;;;;;6.78;4.30;;;;;;;3.86;nan;103268.13;5028471;22;20371;-58
2022/04/17 06:34:19;;;;;;;6.20;4.35;;;;;;;4.00;nan;103273.97;5020887;28;20049;-59
2022/04/17 06:36:44;;;;;;;7.53;4.10;;;;;;;4.13;nan;103272.69;5017648;28;20171;-59
2022/04/17 06:39:10;;;;;;;7.15;4.32;;;;;;;4.24;nan;103267.19;5029551;28;20040;-59
2022/04/17 06:41:36;;;;;;;6.50;4.20;;;;;;;4.38;nan;103273.84;5013136;28;20041;-60
2022/04/17 06:44:02;;;;;;;5.57;4.00;;;;;;;4.50;nan;103269.19;5003508;28;20129;-60
2022/04/17 06:46:27;;;;;;;7.38;4.68;;;;;;;4.62;nan;103275.97;5002979;28;20399;-58
2022/04/17 06:48:53;;;;;;;5.30;4.35;;;;;;;4.76;nan;103277.31;5001016;28;20030;-58
2022/04/17 06:51:23;;;;;;;6.03;4.32;;;;;;;4.91;nan;103275.81;5005271;28;20034;-59
2022/04/17 06:53:50;;;;;;;4.75;3.72;;;;;;;5.04;nan;103278.97;5000638;28;20026;-59
2022/04/17 06:56:18;;;;;;;7.40;4.18;;;;;;;5.16;nan;103275.09;5003148;28;20142;-58
2022/04/17 06:58:45;;;;;;;7.10;4.63;;;;;;;5.29;nan;103273.91;5001793;28;20345;-59
2022/04/17 07:01:11;;;;;;;6.65;4.07;;;;;;;5.43;nan;103279.53;5000028;28;20033;-58
2022/04/17 07:03:36;;;;;;;5.60;4.00;;;;;;;5.55;nan;103271.28;5005763;28;20021;-59
2022/04/17 07:06:02;;;;;;;6.43;4.07;;;;;;;5.68;nan;103277.91;5001175;28;20368;-60
2022/04/17 07:08:28;;;;;;;5.43;3.75;;;;;;;5.84;nan;103265.72;5003241;28;20025;-59
2022/04/17 07:10:54;;;;;;;7.03;4.70;;;;;;;6.00;nan;103274.69;4999646;28;20274;-59
2022/04/17 07:13:21;;;;;;;4.97;3.83;;;;;;;6.19;nan;103273.66;5000015;28;20040;-59
2022/04/17 07:15:48;;;;;;;5.68;3.75;;;;;;;6.38;nan;103267.25;5003133;28;20037;-59
2022/04/17 07:18:14;;;;;;;7.03;3.92;;;;;;;6.57;nan;103263.50;5000725;28;20022;-59
2022/04/17 07:20:40;;;;;;;5.75;3.45;;;;;;;6.75;nan;103260.75;5001934;28;20087;-59
2022/04/17 07:23:08;;;;;;;7.45;3.33;;;;;;;6.90;nan;103251.97;5001406;28;20036;-58
2022/04/17 07:25:36;;;;;;;4.90;3.08;;;;;;;7.04;nan;103250.53;5002330;28;20400;-59
2022/04/17 07:28:02;;;;;;;5.68;3.80;;;;;;;7.22;nan;103250.38;4999409;28;20045;-59
2022/04/17 07:30:30;;;;;;;4.90;3.40;;;;;;;7.46;nan;103246.88;5000715;28;20068;-60
2022/04/17 07:32:57;;;;;;;5.25;3.38;;;;;;;7.66;nan;103242.88;5000170;28;20036;-59
2022/04/17 07:35:24;;;;;;;6.15;3.40;;;;;;;7.89;nan;103237.69;5003007;28;20030;-58
2022/04/17 07:38:01;;;;;;;5.32;3.38;;;;;;;8.11;nan;103231.66;5000988;28;20022;-58
2022/04/17 07:40:29;;;;;;;5.70;3.38;;;;;;;8.33;nan;103223.91;5001739;28;20387;-58
2022/04/17 07:42:56;;;;;;;4.90;3.08;;;;;;;8.47;nan;103221.38;5000901;28;20428;-59
2022/04/17 07:45:23;;;;;;;5.70;2.67;;;;;;;8.60;nan;103226.13;4999712;28;20034;-60
2022/04/17 07:47:49;;;;;;;4.28;3.20;;;;;;;8.75;nan;103227.06;5000799;28;20022;-59
2022/04/17 07:50:21;;;;;;;5.20;3.25;;;;;;;8.89;nan;103219.31;4999589;28;20448;-59
2022/04/17 07:52:47;;;;;;;4.60;3.40;;;;;;;9.06;nan;103220.88;5004611;28;20084;-60
2022/04/17 07:55:14;;;;;;;5.97;3.70;;;;;;;9.18;nan;103214.09;4997279;28;20022;-59
2022/04/17 07:58:42;;;;;;;5.43;3.30;;;;;;;9.37;nan;103212.78;4999441;28;20034;-59
2022/04/17 08:00:45;;;;;;;6.55;4.28;;;;;;;9.57;nan;103207.75;4996209;28;20156;-59
2022/04/17 08:03:21;;;;;;;4.80;3.50;;;;;;;9.75;nan;103199.38;5005810;28;20083;-59
2022/04/17 08:05:49;;;;;;;5.68;3.40;;;;;;;9.89;nan;103196.72;5000249;28;20622;-60
2022/04/17 08:08:14;;;;;;;6.40;3.30;;;;;;;10.05;nan;103206.41;5001718;28;20703;-59
2022/04/17 08:10:41;;;;;;;4.20;3.20;;;;;;;10.23;nan;103198.88;5005112;28;20893;-60
2022/04/17 08:13:06;;;;;;;5.90;4.15;;;;;;;10.39;nan;103205.03;4999830;28;20068;-60
2022/04/17 08:15:33;;;;;;;4.22;3.25;;;;;;;10.48;nan;103207.44;4995870;28;20104;-59
2022/04/17 08:17:59;;;;;;;5.43;3.63;;;;;;;10.53;nan;103213.06;5002839;28;20021;-59
2022/04/17 08:20:24;;;;;;;5.15;3.50;;;;;;;10.64;nan;103206.41;4998218;28;20034;-59
2022/04/17 08:22:50;;;;;;;5.68;3.50;;;;;;;10.77;nan;103203.00;4997812;28;20040;-59
2022/04/17 08:25:16;;;;;;;5.53;3.58;;;;;;;10.86;nan;103202.72;4995084;28;20037;-59
2022/04/17 08:27:53;;;;;;;5.80;3.63;;;;;;;10.85;nan;103203.75;4998643;28;20742;-58
2022/04/17 08:30:24;;;;;;;4.55;3.60;;;;;;;10.90;nan;103200.50;4998590;28;20041;-59
2022/04/17 08:32:50;;;;;;;5.78;4.30;;;;;;;11.02;nan;103193.59;5002573;28;20026;-59
2022/04/17 08:35:16;;;;;;;4.93;3.78;;;;;;;11.20;nan;103202.03;4997908;28;20065;-58
2022/04/17 08:37:45;;;;;;;4.85;3.10;;;;;;;11.41;nan;103194.97;5001257;28;20359;-58
2022/04/17 08:40:12;;;;;;;5.82;3.35;;;;;;;11.50;nan;103188.47;4998857;28;20037;-59
2022/04/17 08:42:38;;;;;;;5.75;3.75;;;;;;;11.62;nan;103197.63;4995264;28;20372;-58
2022/04/17 08:45:05;;;;;;;5.75;4.03;;;;;;;11.79;nan;103190.97;5001653;28;20022;-60
2022/04/17 08:47:32;;;;;;;4.18;3.50;;;;;;;11.91;nan;103195.81;4996776;28;20030;-59
2022/04/17 08:49:59;;;;;;;5.03;4.07;;;;;;;11.96;nan;103193.34;4985405;28;20037;-56
2022/04/17 08:52:28;;;;;;;6.65;4.03;;;;;;;12.03;nan;103197.75;4999101;28;20026;-60
2022/04/17 08:54:54;;;;;;;5.95;4.25;;;;;;;12.11;nan;103183.31;5002317;28;20071;-58
2022/04/17 08:57:22;;;;;;;5.25;4.13;;;;;;;12.18;nan;103178.78;4999714;28;20029;-59
2022/04/17 08:59:48;;;;;;;7.00;4.10;;;;;;;12.18;nan;103186.84;5001195;28;20057;-59
2022/04/17 09:02:14;;;;;;;6.25;3.92;;;;;;;12.12;nan;103184.97;5000564;28;20046;-60
2022/04/17 09:04:43;;;;;;;5.57;3.80;;;;;;;12.06;nan;103181.22;5005255;28;20025;-59
2022/04/17 09:07:13;;;;;;;5.88;4.30;;;;;;;12.16;nan;103183.53;4999782;28;20045;-59
2022/04/17 09:09:49;;;;;;;9.30;4.63;;;;;;;12.30;nan;103187.13;5000388;28;20483;-59
2022/04/17 09:12:19;;;;;;;5.00;3.85;;;;;;;12.44;nan;103188.00;5001779;28;20033;-59
2022/04/17 09:14:45;;;;;;;5.25;4.10;;;;;;;12.56;nan;103173.75;5001802;28;20068;-59
2022/04/17 09:17:11;;;;;;;7.53;4.30;;;;;;;12.63;nan;103179.19;4998804;28;20416;-59
2022/04/17 09:19:37;;;;;;;5.00;4.00;;;;;;;12.69;nan;103162.22;5005495;28;20060;-60
2022/04/17 09:22:03;;;;;;;6.82;4.57;;;;;;;12.82;nan;103154.19;5002211;28;20128;-60
2022/04/17 09:24:28;;;;;;;6.78;4.70;;;;;;;12.98;nan;103153.78;4998394;28;20121;-60
2022/04/17 09:26:58;;;;;;;5.82;4.63;;;;;;;13.12;nan;103162.72;4996670;28;20117;-60
2022/04/17 09:29:29;;;;;;;6.47;4.07;;;;;;;13.25;nan;103161.91;4997841;28;20026;-61
2022/04/17 09:32:08;;;;;;;5.18;4.03;;;;;;;13.33;nan;103160.88;5002728;28;20034;-60
2022/04/17 09:34:50;;;;;;;5.45;4.13;;;;;;;13.20;nan;103154.44;5003626;28;20428;-58
2022/04/17 09:37:22;;;;;;;6.00;4.60;;;;;;;13.24;nan;103155.69;4998527;28;20084;-60
2022/04/17 09:39:49;;;;;;;6.25;4.63;;;;;;;13.32;nan;103154.66;5001210;28;20527;-60
2022/04/17 09:42:23;;;;;;;7.47;4.70;;;;;;;13.40;nan;103149.06;4996896;28;20048;-61
2022/04/17 09:44:51;;;;;;;6.40;4.10;;;;;;;13.51;nan;103148.44;4998602;28;20053;-59
2022/04/17 09:47:17;;;;;;;5.13;3.55;;;;;;;13.55;nan;103144.28;4998313;28;20495;-60
2022/04/17 09:49:57;;;;;;;4.20;3.60;;;;;;;13.64;nan;103144.03;4997511;28;20152;-60
2022/04/17 09:52:29;;;;;;;5.00;3.85;;;;;;;13.83;nan;103140.50;4996172;28;21230;-60
2022/04/17 09:54:55;;;;;;;4.43;3.63;;;;;;;14.03;nan;103133.19;4997530;28;20041;-60
2022/04/17 09:57:39;;;;;;;5.60;4.05;;;;;;;14.04;nan;103132.16;4994866;28;20026;-60
2022/04/17 10:00:19;;;;;;;6.03;4.10;;;;;;;14.11;nan;103138.31;4998324;28;20037;-60
2022/04/17 10:02:46;;;;;;;5.65;4.07;;;;;;;14.28;nan;103138.66;4996283;28;20067;-61
2022/04/17 10:05:14;;;;;;;5.78;3.80;;;;;;;14.37;nan;103128.47;4997069;28;20026;-59
2022/04/17 10:07:44;;;;;;;6.63;3.95;;;;;;;14.42;nan;103123.25;4996311;28;20468;-61
2022/04/17 10:10:12;;;;;;;5.53;4.05;;;;;;;14.46;nan;103119.09;4997195;28;20033;-61
2022/04/17 10:12:46;;;;;;;5.15;3.80;;;;;;;14.51;nan;103124.66;4996463;28;20033;-61
2022/04/17 10:15:12;;;;;;;5.13;4.13;;;;;;;14.64;nan;103121.06;4994331;28;20364;-60
2022/04/17 10:17:40;;;;;;;6.55;4.45;;;;;;;14.66;nan;103113.59;4996237;28;20029;-60
2022/04/17 10:20:09;;;;;;;5.53;3.83;;;;;;;14.69;nan;103118.53;4992440;28;20030;-59
2022/04/17 10:22:38;;;;;;;5.93;4.30;;;;;;;14.84;nan;103110.13;4994561;28;20742;-59
2022/04/17 10:25:06;;;;;;;5.22;4.10;;;;;;;14.88;nan;103100.56;4992020;28;20404;-60
2022/04/17 10:27:38;;;;;;;7.25;4.43;;;;;;;14.88;nan;103111.34;4998439;28;20038;-60
2022/04/17 10:30:07;;;;;;;5.10;3.75;;;;;;;15.05;nan;103097.09;5000135;28;20034;-60
2022/04/17 10:32:33;;;;;;;7.15;4.50;;;;;;;15.19;nan;103076.19;4996725;28;20069;-60
2022/04/17 10:35:17;;;;;;;7.22;4.90;;;;;;;15.20;nan;103087.81;4992986;28;21491;-61
2022/04/17 10:38:00;;;;;;;5.33;3.93;;;;;;;15.26;nan;103079.69;4999338;28;20033;-60
2022/04/17 10:40:25;;;;;;;6.80;3.67;;;;;;;15.45;nan;103074.31;4995663;28;20144;-60
2022/04/17 10:43:00;;;;;;;5.93;3.47;;;;;;;15.48;nan;103071.16;4997750;28;20195;-60
2022/04/17 10:45:26;;;;;;;5.50;3.78;;;;;;;15.53;nan;103074.81;4992029;28;20106;-62
2022/04/17 10:48:09;;;;;;;5.70;3.92;;;;;;;15.43;nan;103078.03;5001292;28;20176;-59
2022/04/17 10:50:49;;;;;;;5.18;3.60;;;;;;;15.39;nan;103076.81;4998968;28;20045;-60
2022/04/17 10:53:31;;;;;;;4.53;3.58;;;;;;;15.43;nan;103064.50;4993997;28;20030;-60
2022/04/17 10:56:03;;;;;;;12.85;8.65;;;;;;;15.50;nan;103059.06;4998180;28;20034;-60
2022/04/17 10:58:52;;;;;;;5.53;4.30;;;;;;;15.55;nan;103059.19;4995677;28;20038;-59
2022/04/17 11:01:41;;;;;;;4.93;4.05;;;;;;;15.59;nan;103059.59;4994726;28;20045;-60
2022/04/17 11:04:16;;;;;;;5.38;4.38;;;;;;;15.65;nan;103061.41;4991521;28;20488;-59
2022/04/17 11:06:42;;;;;;;4.85;4.00;;;;;;;15.75;nan;103048.19;4996910;28;20117;-59
2022/04/17 11:09:24;;;;;;;5.13;3.83;;;;;;;15.78;nan;103055.84;5000925;28;20454;-59
2022/04/17 11:11:51;;;;;;;7.43;4.25;;;;;;;15.86;nan;103060.94;4995327;28;20168;-58
2022/04/17 11:14:20;;;;;;;5.15;3.90;;;;;;;15.76;nan;103060.66;4995382;28;20026;-59
2022/04/17 11:16:47;;;;;;;5.13;4.20;;;;;;;15.68;nan;103048.28;4996521;28;20041;-59
2022/04/17 11:19:15;;;;;;;5.40;3.42;;;;;;;15.68;nan;103052.84;4999988;28;20120;-59
2022/04/17 11:21:44;;;;;;;4.80;4.05;;;;;;;15.81;nan;103047.31;4997439;28;20491;-59
2022/04/17 11:24:09;;;;;;;5.43;4.18;;;;;;;16.05;nan;103044.69;4999881;28;20496;-59
2022/04/17 11:26:53;;;;;;;6.80;4.30;;;;;;;16.19;nan;103033.47;4996890;28;20030;-59
2022/04/17 11:29:37;;;;;;;5.85;4.53;;;;;;;16.06;nan;103039.06;4998742;28;20140;-59
2022/04/17 11:32:26;;;;;;;5.90;4.07;;;;;;;15.87;nan;103043.69;5005872;28;20134;-59
2022/04/17 11:34:55;;;;;;;8.30;3.83;;;;;;;15.93;nan;103039.22;4992870;28;20041;-60
2022/04/17 11:37:26;;;;;;;5.40;3.92;;;;;;;15.92;nan;103046.50;5001541;28;20033;-60
2022/04/17 11:39:53;;;;;;;5.82;3.72;;;;;;;15.96;nan;103045.00;4998650;28;20125;-60
2022/04/17 11:42:19;;;;;;;5.03;3.53;;;;;;;16.12;nan;103037.31;5001222;28;20065;-60
2022/04/17 11:44:47;;;;;;;4.88;3.00;;;;;;;16.31;nan;103038.91;4999693;28;20116;-60
2022/04/17 11:47:17;;;;;;;4.45;3.22;;;;;;;16.40;nan;103029.41;5000932;28;20041;-59
2022/04/17 11:49:44;;;;;;;4.40;3.17;;;;;;;16.59;nan;103028.28;4998093;28;20026;-60
2022/04/17 11:52:14;;;;;;;5.38;3.65;;;;;;;16.68;nan;103036.88;4996390;28;20030;-60
2022/04/17 11:54:41;;;;;;;5.20;3.67;;;;;;;16.68;nan;103025.25;5001273;28;20101;-60
2022/04/17 11:57:08;;;;;;;4.60;3.70;;;;;;;16.70;nan;103021.28;4998682;28;20034;-60
2022/04/17 11:59:56;;;;;;;6.63;3.80;;;;;;;16.57;nan;103018.75;4998282;28;20036;-60